Terminal Aerodrome Forecast
Issued by NWS Wichita, KS

Home | Current Version | Previous Version | Graphics & Text | Print | Product List | Glossary On
Versions: 1 2 3 4 5 6 7 8 9 10 11 12 13 14
000
FTUS43 KICT 240500
TAFICT
TAF
KICT 240520Z 2406/2506 08005KT P6SM SKC
     FM240900 11005KT 5SM BR SKC
     FM241600 15010KT P6SM SKC
     FM250300 15009KT P6SM SKC=

USA.gov is the U.S. government's official web portal to all federal, state and local government web resources and services.